Time;durP1;ratioP1;P1;durP2;ratioP2;P2;SDS_P1;SDS_P2;PMS_P1;PMS_P2;Temp;Humidity;BMP_temperature;BMP_pressure;BME280_temperature;BME280_humidity;BME280_pressure;Samples;Min_cycle;Max_cycle;Signal;HPM_P1;HPM_P2
2022/11/04 00:01:08;;;;;;;11.13;6.15;;;10.70;99.90;;;;;;6132336;19;19919;-72
2022/11/04 00:03:12;;;;;;;7.68;5.82;;;10.50;99.90;;;;;;6128867;19;19925;-74
2022/11/04 00:05:16;;;;;;;7.30;5.20;;;10.80;99.90;;;;;;6128657;19;19922;-73
2022/11/04 00:09:39;;;;;;;10.52;5.53;;;11.00;99.90;;;;;;6133406;19;19921;-73
2022/11/04 00:13:59;;;;;;;8.88;5.78;;;10.40;99.90;;;;;;6131635;19;20331;-73
2022/11/04 00:18:19;;;;;;;9.20;5.85;;;11.10;99.90;;;;;;6129848;19;19923;-73
2022/11/04 00:29:34;;;;;;;8.02;5.28;;;10.80;99.90;;;;;;6129096;19;19922;-73
2022/11/04 00:33:56;;;;;;;10.25;4.93;;;10.30;99.90;;;;;;6130115;19;19921;-73
2022/11/04 00:36:00;;;;;;;8.65;5.43;;;;;;;;;;6128715;19;19947;-73
2022/11/04 00:38:07;;;;;;;7.80;5.00;;;10.60;99.90;;;;;;6127821;19;19914;-73
2022/11/04 00:40:14;;;;;;;8.27;5.28;;;10.50;99.90;;;;;;6128651;19;20405;-73
2022/11/04 00:42:18;;;;;;;8.30;5.07;;;10.70;99.90;;;;;;6129231;19;19923;-73
2022/11/04 00:44:22;;;;;;;9.68;5.47;;;10.40;99.90;;;;;;6128746;19;20403;-73
2022/11/04 00:46:26;;;;;;;8.52;5.40;;;10.90;99.90;;;;;;6128696;19;20275;-73
2022/11/04 00:48:30;;;;;;;7.70;5.35;;;11.00;99.90;;;;;;6128521;19;19942;-73
2022/11/04 00:50:34;;;;;;;6.43;4.85;;;10.50;99.90;;;;;;6128385;19;19932;-73
2022/11/04 00:52:38;;;;;;;9.23;6.05;;;;;;;;;;6128318;19;20285;-73
2022/11/04 00:54:44;;;;;;;10.43;5.63;;;10.70;99.90;;;;;;6128287;19;19915;-73
2022/11/04 00:56:49;;;;;;;6.22;5.00;;;10.40;99.90;;;;;;6128263;19;19931;-73
2022/11/04 00:58:53;;;;;;;8.25;5.03;;;;;;;;;;6129377;19;19931;-73
2022/11/04 01:00:57;;;;;;;5.75;4.05;;;10.30;99.90;;;;;;6128241;19;19938;-73
2022/11/04 01:03:01;;;;;;;7.30;4.35;;;10.70;99.90;;;;;;6129655;19;19922;-73
2022/11/04 01:05:05;;;;;;;7.07;4.22;;;10.50;99.90;;;;;;6127221;19;19982;-73
2022/11/04 01:07:09;;;;;;;6.63;4.05;;;;;;;;;;6128444;19;19922;-73
2022/11/04 01:09:14;;;;;;;6.10;4.47;;;10.40;99.90;;;;;;6126658;19;20582;-73
2022/11/04 01:11:20;;;;;;;7.93;4.05;;;10.60;99.90;;;;;;6128103;19;19937;-73
2022/11/04 01:13:24;;;;;;;6.10;4.03;;;10.50;99.90;;;;;;6127972;19;19937;-74
2022/11/04 01:15:28;;;;;;;7.82;4.55;;;10.40;99.90;;;;;;6129964;19;20287;-73
2022/11/04 01:17:32;;;;;;;6.30;4.25;;;10.50;99.90;;;;;;6130337;19;19938;-73
2022/11/04 01:19:36;;;;;;;8.38;4.53;;;10.40;99.90;;;;;;6127718;19;19911;-73
2022/11/04 01:21:40;;;;;;;6.80;3.85;;;10.30;99.90;;;;;;6128026;19;19919;-73
2022/11/04 01:23:45;;;;;;;3.95;2.95;;;10.50;99.90;;;;;;6128110;19;19938;-73
2022/11/04 01:25:49;;;;;;;3.17;2.50;;;10.50;99.90;;;;;;6127184;19;19915;-73
2022/11/04 01:27:57;;;;;;;4.03;3.05;;;10.50;99.90;;;;;;6127385;19;19938;-73
2022/11/04 01:30:01;;;;;;;4.38;2.80;;;10.80;99.90;;;;;;6127646;19;19956;-73
2022/11/04 01:32:04;;;;;;;4.68;3.00;;;10.40;99.90;;;;;;6127727;19;20273;-73
2022/11/04 01:34:09;;;;;;;3.40;2.17;;;10.50;99.90;;;;;;6128766;19;19938;-73
2022/11/04 01:36:14;;;;;;;4.30;2.70;;;11.00;99.90;;;;;;6127395;19;20286;-73
2022/11/04 01:38:18;;;;;;;4.22;2.50;;;10.40;99.90;;;;;;6127623;19;20363;-73
2022/11/04 01:40:21;;;;;;;3.42;2.10;;;10.50;99.90;;;;;;6127247;19;19915;-73
2022/11/04 01:42:26;;;;;;;3.95;1.88;;;10.20;99.90;;;;;;6127198;19;20350;-74
2022/11/04 01:44:52;;;;;;;2.80;1.98;;;10.30;99.90;;;;;;6127193;19;19919;-73
2022/11/04 01:46:56;;;;;;;2.85;1.52;;;10.40;99.90;;;;;;6127877;19;19922;-73
2022/11/04 01:49:04;;;;;;;1.98;1.35;;;10.20;99.90;;;;;;6125450;19;19911;-73
2022/11/04 01:51:09;;;;;;;3.30;1.60;;;10.20;99.90;;;;;;6128309;19;20352;-73
2022/11/04 01:53:17;;;;;;;2.53;1.48;;;9.90;99.90;;;;;;6127005;19;19940;-73
2022/11/04 01:55:25;;;;;;;2.25;1.20;;;9.90;99.90;;;;;;6126511;19;19915;-73
2022/11/04 01:57:35;;;;;;;3.47;1.40;;;10.40;99.90;;;;;;6127784;19;19910;-72
2022/11/04 01:59:42;;;;;;;3.53;1.17;;;10.00;99.90;;;;;;6126773;19;19985;-72
2022/11/04 02:01:49;;;;;;;1.98;0.90;;;9.80;99.90;;;;;;6127215;19;19926;-73
2022/11/04 02:04:24;;;;;;;2.22;1.00;;;9.90;99.90;;;;;;6126235;19;19973;-73
2022/11/04 02:06:23;;;;;;;1.48;0.90;;;10.00;99.90;;;;;;6127941;19;19927;-75
2022/11/04 02:08:27;;;;;;;1.40;0.63;;;9.90;99.90;;;;;;6129134;19;19915;-73
2022/11/04 02:10:32;;;;;;;1.73;0.90;;;9.80;99.90;;;;;;6126585;19;19915;-73
2022/11/04 02:12:49;;;;;;;0.80;0.50;;;9.80;99.90;;;;;;6126655;19;20379;-73
2022/11/04 02:14:54;;;;;;;3.08;0.73;;;9.80;99.90;;;;;;6126955;19;19994;-73
2022/11/04 02:17:07;;;;;;;0.63;0.60;;;9.90;99.90;;;;;;6127464;19;19940;-73
2022/11/04 02:19:32;;;;;;;1.60;0.50;;;10.00;99.90;;;;;;6126498;19;20005;-74
2022/11/04 02:22:12;;;;;;;0.70;0.43;;;9.60;99.90;;;;;;6129815;19;20280;-73
2022/11/04 02:24:54;;;;;;;0.43;0.30;;;9.80;99.90;;;;;;6125854;19;20353;-73
2022/11/04 02:27:33;;;;;;;1.25;0.52;;;9.80;99.90;;;;;;6127797;19;19918;-73
2022/11/04 02:30:00;;;;;;;0.85;0.30;;;10.10;99.90;;;;;;6126420;19;19926;-73
2022/11/04 02:32:13;;;;;;;0.80;0.38;;;9.90;99.90;;;;;;6128401;19;19937;-72
2022/11/04 02:34:27;;;;;;;0.20;0.20;;;9.90;99.90;;;;;;6126219;19;19919;-73
2022/11/04 02:36:34;;;;;;;;;;;10.90;99.90;;;;;;6131274;19;19937;-73
2022/11/04 02:38:45;;;;;;;0.95;0.32;;;10.00;99.90;;;;;;6126225;19;19918;-73
2022/11/04 02:40:59;;;;;;;1.85;0.20;;;9.80;99.90;;;;;;6126426;19;19919;-74
2022/11/04 02:43:08;;;;;;;1.50;0.40;;;9.70;99.90;;;;;;6128537;19;19915;-73
2022/11/04 02:45:23;;;;;;;2.28;0.47;;;9.60;99.90;;;;;;6125579;19;19915;-74
2022/11/04 02:47:31;;;;;;;0.47;0.30;;;9.80;99.90;;;;;;6128665;19;19923;-73
2022/11/04 02:49:41;;;;;;;1.85;0.43;;;9.80;99.90;;;;;;6124407;19;20263;-73
2022/11/04 02:51:50;;;;;;;1.35;0.25;;;9.50;99.90;;;;;;6125411;19;19918;-73
2022/11/04 02:54:02;;;;;;;0.75;0.20;;;9.80;99.90;;;;;;6125772;19;20359;-73
2022/11/04 02:56:08;;;;;;;0.43;0.20;;;9.70;99.90;;;;;;6126794;19;19911;-74
2022/11/04 02:58:17;;;;;;;0.30;0.10;;;9.90;99.90;;;;;;6125814;19;19926;-73
2022/11/04 03:00:23;;;;;;;0.60;0.30;;;9.80;99.90;;;;;;6124891;19;19916;-73
2022/11/04 03:02:31;;;;;;;0.88;0.40;;;9.40;99.90;;;;;;6130759;19;20348;-73
2022/11/04 03:04:40;;;;;;;0.40;0.30;;;9.90;99.90;;;;;;6129934;19;19949;-73
2022/11/04 03:06:46;;;;;;;2.35;0.28;;;9.80;99.90;;;;;;6131607;19;20257;-73
2022/11/04 03:08:53;;;;;;;1.17;0.20;;;9.90;99.90;;;;;;6130227;19;19926;-73
2022/11/04 03:11:03;;;;;;;2.85;0.30;;;10.20;99.90;;;;;;6130646;19;19914;-73
2022/11/04 03:13:11;;;;;;;1.52;0.25;;;10.20;99.90;;;;;;6133176;19;19941;-73
2022/11/04 03:15:22;;;;;;;4.63;0.77;;;10.10;99.90;;;;;;6131222;19;20264;-73
2022/11/04 03:17:33;;;;;;;1.05;0.50;;;10.20;99.90;;;;;;6130819;19;19915;-73
2022/11/04 03:19:43;;;;;;;0.73;0.40;;;10.00;99.90;;;;;;6130539;19;19914;-73
2022/11/04 03:21:54;;;;;;;1.90;0.40;;;9.60;99.90;;;;;;6130749;19;19918;-73
2022/11/04 03:23:58;;;;;;;0.77;0.30;;;9.70;99.90;;;;;;6130631;19;19930;-73
2022/11/04 03:26:12;;;;;;;1.13;0.40;;;9.60;99.90;;;;;;6130147;19;19919;-73
2022/11/04 03:28:31;;;;;;;1.27;0.35;;;9.80;99.90;;;;;;6130286;19;19922;-73
2022/11/04 03:30:40;;;;;;;0.55;0.28;;;9.90;99.90;;;;;;6130347;19;19922;-73
2022/11/04 03:32:54;;;;;;;1.38;0.28;;;9.90;99.90;;;;;;6131950;19;20030;-73
2022/11/04 03:34:58;;;;;;;1.25;0.30;;;9.80;99.90;;;;;;6130519;19;20257;-73
2022/11/04 03:37:03;;;;;;;0.90;0.30;;;9.70;99.90;;;;;;6130142;19;19923;-72
2022/11/04 03:39:07;;;;;;;1.48;0.32;;;10.00;99.90;;;;;;6130030;19;19932;-73
2022/11/04 03:41:16;;;;;;;1.50;0.22;;;10.30;99.90;;;;;;6128692;19;19926;-73
2022/11/04 03:43:24;;;;;;;1.58;0.30;;;9.80;99.90;;;;;;6133244;19;19938;-73
2022/11/04 03:45:29;;;;;;;2.30;0.35;;;10.10;99.90;;;;;;6131842;19;19934;-73
2022/11/04 03:47:33;;;;;;;1.23;0.22;;;10.10;99.90;;;;;;6129922;19;19922;-73
2022/11/04 03:49:40;;;;;;;1.67;0.20;;;8.70;99.90;;;;;;6129884;19;19918;-73
2022/11/04 03:51:44;;;;;;;0.20;0.20;;;9.90;99.90;;;;;;6129629;19;20018;-73
2022/11/04 03:53:48;;;;;;;0.93;0.20;;;10.00;99.90;;;;;;6132240;19;19937;-73
2022/11/04 03:56:05;;;;;;;1.38;0.30;;;10.10;99.90;;;;;;6129534;19;19923;-73
2022/11/04 03:58:17;;;;;;;0.93;0.30;;;9.90;99.90;;;;;;6132954;19;20026;-73
2022/11/04 04:00:23;;;;;;;1.98;0.38;;;9.90;99.90;;;;;;6131213;19;19914;-73
2022/11/04 04:02:34;;;;;;;1.63;0.20;;;10.10;99.90;;;;;;6131359;19;19929;-73
2022/11/04 04:04:45;;;;;;;1.75;0.30;;;10.00;99.90;;;;;;6128939;19;20259;-73
2022/11/04 04:06:53;;;;;;;1.83;0.20;;;9.80;99.90;;;;;;6131184;19;19917;-73
2022/11/04 04:09:02;;;;;;;0.60;0.20;;;9.70;99.90;;;;;;6129197;19;19915;-73
2022/11/04 04:11:10;;;;;;;;;;;10.00;99.90;;;;;;6132279;19;19941;-73
2022/11/04 04:13:24;;;;;;;1.92;0.45;;;9.20;99.90;;;;;;6129032;19;19938;-73
2022/11/04 04:15:32;;;;;;;1.50;0.20;;;9.60;99.90;;;;;;6128437;19;20336;-72
2022/11/04 04:17:39;;;;;;;1.40;0.50;;;9.90;99.90;;;;;;6129355;19;20278;-73
2022/11/04 04:19:49;;;;;;;0.13;0.10;;;9.50;99.90;;;;;;6129175;19;19910;-73
2022/11/04 04:21:57;;;;;;;1.85;0.35;;;8.90;99.90;;;;;;6129187;19;19962;-73
2022/11/04 04:28:40;;;;;;;0.90;0.47;;;9.90;99.90;;;;;;6129498;19;19982;-73
2022/11/04 04:30:46;;;;;;;1.20;0.30;;;9.40;99.90;;;;;;6127548;19;19934;-73
2022/11/04 04:32:53;;;;;;;1.00;0.50;;;9.70;99.90;;;;;;6128955;19;20389;-73
2022/11/04 04:37:21;;;;;;;0.65;0.65;;;9.40;99.90;;;;;;6128530;19;19930;-73
2022/11/04 04:46:30;;;;;;;3.03;0.60;;;9.90;99.90;;;;;;6131137;19;19935;-73
2022/11/04 04:48:34;;;;;;;1.50;0.57;;;9.60;99.90;;;;;;6128507;19;19918;-73
2022/11/04 04:50:43;;;;;;;0.90;0.50;;;9.40;99.90;;;;;;6130306;19;19941;-72
2022/11/04 04:52:49;;;;;;;1.80;0.80;;;9.30;99.90;;;;;;6128993;19;19910;-72
2022/11/04 04:54:53;;;;;;;1.15;0.43;;;9.40;99.90;;;;;;6128077;19;19941;-72
2022/11/04 04:56:57;;;;;;;0.15;0.15;;;;;;;;;;6129622;19;19911;-72
2022/11/04 04:59:01;;;;;;;1.38;0.15;;;9.60;99.90;;;;;;6128834;19;19945;-72
2022/11/04 05:01:07;;;;;;;0.45;0.20;;;9.70;99.90;;;;;;6130115;19;19919;-72
2022/11/04 05:03:11;;;;;;;0.25;0.17;;;9.30;99.90;;;;;;6127215;19;19921;-72
2022/11/04 05:05:16;;;;;;;0.68;0.20;;;9.60;99.90;;;;;;6127294;19;19938;-73
2022/11/04 05:07:25;;;;;;;5.93;0.38;;;9.40;99.90;;;;;;6126511;19;19936;-74
2022/11/04 05:09:29;;;;;;;0.90;0.25;;;9.30;99.90;;;;;;6127747;19;20249;-74
2022/11/04 05:11:33;;;;;;;1.48;0.20;;;9.40;99.90;;;;;;6128002;19;20374;-74
2022/11/04 05:13:34;;;;;;;2.17;0.20;;;9.20;99.90;;;;;;6128011;19;20253;-74
2022/11/04 05:15:38;;;;;;;1.17;0.20;;;9.40;99.90;;;;;;6130447;19;19922;-75
2022/11/04 05:17:42;;;;;;;3.40;0.30;;;;;;;;;;6128025;19;19918;-75
2022/11/04 05:19:46;;;;;;;2.92;0.50;;;9.20;99.90;;;;;;6127858;19;19950;-75
2022/11/04 05:21:49;;;;;;;0.55;0.10;;;9.10;99.90;;;;;;6128112;19;19911;-74
2022/11/04 05:23:56;;;;;;;0.60;0.20;;;9.20;99.90;;;;;;6126160;19;19918;-73
2022/11/04 05:26:00;;;;;;;3.10;0.60;;;9.40;99.90;;;;;;6126439;19;19934;-74
2022/11/04 05:28:04;;;;;;;3.00;0.30;;;9.40;99.90;;;;;;6129150;19;19914;-79
2022/11/04 05:30:09;;;;;;;0.80;0.30;;;9.20;99.90;;;;;;6128940;19;19917;-78
2022/11/04 05:32:13;;;;;;;0.38;0.20;;;9.50;99.90;;;;;;6131939;19;19945;-78
2022/11/04 05:34:17;;;;;;;1.77;0.30;;;9.10;99.90;;;;;;6127395;19;19914;-78
2022/11/04 05:36:21;;;;;;;1.05;0.20;;;;;;;;;;6127747;19;19918;-79
2022/11/04 05:38:26;;;;;;;1.38;0.38;;;;;;;;;;6127497;19;19921;-78
2022/11/04 05:40:32;;;;;;;0.30;0.20;;;9.10;99.90;;;;;;6127910;19;20275;-78
2022/11/04 05:42:36;;;;;;;1.08;0.30;;;9.00;99.90;;;;;;6127820;19;19918;-75
2022/11/04 05:44:40;;;;;;;2.17;0.30;;;9.00;99.90;;;;;;6127985;19;20423;-75
2022/11/04 05:46:44;;;;;;;2.42;0.50;;;9.20;99.90;;;;;;6127117;19;20350;-74
2022/11/04 05:48:48;;;;;;;1.42;0.40;;;;;;;;;;6129279;19;19938;-76
2022/11/04 05:50:52;;;;;;;1.52;0.50;;;9.30;99.90;;;;;;6129157;19;19918;-76
2022/11/04 05:52:58;;;;;;;0.80;0.28;;;9.30;99.90;;;;;;6130529;19;19929;-75
2022/11/04 05:55:02;;;;;;;0.80;0.30;;;9.30;99.90;;;;;;6127164;19;19986;-76
2022/11/04 05:57:08;;;;;;;1.98;0.30;;;9.50;99.90;;;;;;6126893;19;20259;-75
2022/11/04 05:59:12;;;;;;;0.63;0.25;;;9.00;99.90;;;;;;6129126;19;19914;-76
2022/11/04 06:01:26;;;;;;;2.45;0.20;;;9.40;99.90;;;;;;6127311;19;19932;-75
2022/11/04 06:03:30;;;;;;;1.63;0.32;;;;;;;;;;6126243;19;19918;-74
2022/11/04 06:05:34;;;;;;;2.08;0.25;;;;;;;;;;6129019;19;19915;-79
2022/11/04 06:07:38;;;;;;;1.60;0.30;;;9.20;99.90;;;;;;6128012;19;20375;-85
2022/11/04 06:09:42;;;;;;;0.75;0.30;;;9.10;99.90;;;;;;6127066;19;19938;-78
2022/11/04 06:11:46;;;;;;;1.33;0.20;;;9.00;99.90;;;;;;6128697;19;19918;-80
2022/11/04 06:13:54;;;;;;;1.90;0.20;;;8.90;99.90;;;;;;6126290;19;19922;-78
2022/11/04 06:15:58;;;;;;;1.50;0.17;;;9.10;99.90;;;;;;6128701;19;19922;-81
2022/11/04 06:18:02;;;;;;;1.27;0.30;;;;;;;;;;6127761;19;20324;-82
2022/11/04 06:20:08;;;;;;;0.90;0.20;;;8.90;99.90;;;;;;6126742;19;19918;-81
2022/11/04 06:22:13;;;;;;;0.63;0.30;;;8.90;99.90;;;;;;6129258;19;19925;-84
2022/11/04 06:24:17;;;;;;;1.85;0.20;;;;;;;;;;6128479;19;19914;-87
2022/11/04 06:26:21;;;;;;;0.30;0.10;;;8.80;99.90;;;;;;6127289;19;19914;-85
2022/11/04 06:28:25;;;;;;;1.17;0.22;;;8.70;99.90;;;;;;6134723;19;19987;-80
2022/11/04 06:30:32;;;;;;;5.68;0.30;;;8.70;99.90;;;;;;6125789;19;19965;-77
2022/11/04 06:32:36;;;;;;;0.43;0.20;;;8.60;99.90;;;;;;6126609;19;19923;-76
2022/11/04 06:34:40;;;;;;;0.98;0.25;;;8.90;99.90;;;;;;6128141;19;19974;-87
2022/11/04 06:36:44;;;;;;;3.90;0.30;;;8.80;99.90;;;;;;6133576;19;19923;-79
2022/11/04 06:38:49;;;;;;;1.55;0.32;;;8.80;99.90;;;;;;6129778;19;19919;-82
2022/11/04 06:40:53;;;;;;;0.55;0.30;;;9.00;99.90;;;;;;6136077;19;19918;-83
2022/11/04 06:42:57;;;;;;;1.23;0.20;;;8.60;99.90;;;;;;6132666;19;19915;-79
2022/11/04 06:45:00;;;;;;;1.67;0.40;;;8.60;99.90;;;;;;6133794;19;20248;-76
2022/11/04 06:47:07;;;;;;;2.47;0.20;;;8.70;99.90;;;;;;6132571;19;20237;-76
2022/11/04 06:49:16;;;;;;;1.48;0.20;;;8.60;99.90;;;;;;6131894;19;19926;-76
2022/11/04 06:51:20;;;;;;;1.08;0.13;;;8.60;99.90;;;;;;6127534;19;19922;-76
2022/11/04 06:53:24;;;;;;;1.85;0.30;;;8.50;99.90;;;;;;6131226;19;20252;-76
2022/11/04 06:55:28;;;;;;;0.75;0.28;;;;;;;;;;6132221;19;20331;-76
2022/11/04 06:57:32;;;;;;;0.47;0.20;;;8.70;99.90;;;;;;6130129;19;19978;-76
2022/11/04 06:59:36;;;;;;;0.30;0.20;;;8.60;99.90;;;;;;6134663;19;19923;-76
2022/11/04 07:01:40;;;;;;;1.40;0.28;;;8.70;99.90;;;;;;6130578;19;19921;-77
2022/11/04 07:03:50;;;;;;;3.10;0.43;;;8.80;99.90;;;;;;6129531;19;19930;-76
2022/11/04 07:05:54;;;;;;;1.05;0.28;;;8.60;99.90;;;;;;6132161;19;19922;-76
2022/11/04 07:07:58;;;;;;;1.23;0.22;;;;;;;;;;6130713;19;19937;-76
2022/11/04 07:10:02;;;;;;;2.03;0.17;;;8.70;99.90;;;;;;6130354;19;19911;-76
2022/11/04 07:12:06;;;;;;;0.98;0.73;;;8.90;99.90;;;;;;6129503;19;20311;-81
2022/11/04 07:14:13;;;;;;;1.50;0.30;;;8.70;99.90;;;;;;6134762;19;20260;-80
2022/11/04 07:16:18;;;;;;;1.95;0.32;;;;;;;;;;6128026;19;20252;-77
2022/11/04 07:18:22;;;;;;;4.97;0.80;;;8.70;99.90;;;;;;6131794;19;19918;-78
2022/11/04 07:20:28;;;;;;;2.63;0.50;;;9.00;99.90;;;;;;6130128;19;19926;-78
2022/11/04 07:22:32;;;;;;;4.38;1.02;;;8.80;99.90;;;;;;6129862;19;20276;-79
2022/11/04 07:24:36;;;;;;;1.75;0.75;;;9.00;99.90;;;;;;6130344;19;19915;-80
2022/11/04 07:26:41;;;;;;;0.98;0.40;;;8.60;99.90;;;;;;6130492;19;20293;-79
2022/11/04 07:28:45;;;;;;;2.05;0.38;;;;;;;;;;6126622;19;19919;-79
2022/11/04 07:30:49;;;;;;;1.73;0.43;;;9.20;99.90;;;;;;6132141;19;19945;-79
2022/11/04 07:32:53;;;;;;;3.38;0.32;;;8.90;99.90;;;;;;6129926;19;19915;-79
2022/11/04 07:34:57;;;;;;;1.80;0.45;;;;;;;;;;6129910;19;20241;-79
2022/11/04 07:37:04;;;;;;;2.70;0.40;;;9.30;99.90;;;;;;6131520;19;20295;-79
2022/11/04 07:39:08;;;;;;;1.15;0.52;;;9.30;99.90;;;;;;6128635;19;19941;-79
2022/11/04 07:41:13;;;;;;;2.38;0.45;;;9.20;99.90;;;;;;6130594;19;19915;-79
2022/11/04 07:43:17;;;;;;;2.05;0.30;;;9.10;99.90;;;;;;6129770;19;19921;-79
2022/11/04 07:45:21;;;;;;;1.23;0.63;;;9.10;99.90;;;;;;6130187;19;19919;-80
2022/11/04 07:47:26;;;;;;;1.02;0.50;;;9.20;99.90;;;;;;6127591;19;19922;-78
2022/11/04 07:49:30;;;;;;;4.22;0.80;;;;;;;;;;6131675;19;20008;-79
2022/11/04 07:51:34;;;;;;;0.90;0.43;;;8.80;99.90;;;;;;6128253;19;19917;-78
2022/11/04 07:53:41;;;;;;;1.00;0.28;;;8.90;99.90;;;;;;6129610;19;20004;-77
2022/11/04 07:55:48;;;;;;;2.22;0.30;;;9.10;99.90;;;;;;6130565;19;19961;-78
2022/11/04 07:57:52;;;;;;;2.67;0.50;;;8.90;99.90;;;;;;6127497;19;19947;-79
2022/11/04 07:59:56;;;;;;;3.50;0.70;;;9.20;99.90;;;;;;6129179;19;19998;-79
2022/11/04 08:02:00;;;;;;;2.78;0.60;;;;;;;;;;6129128;19;20379;-79
2022/11/04 08:04:04;;;;;;;0.95;0.30;;;8.70;99.90;;;;;;6127889;19;19953;-78
2022/11/04 08:06:09;;;;;;;2.47;0.35;;;9.10;99.90;;;;;;6127118;19;19943;-79
2022/11/04 08:08:13;;;;;;;2.00;0.40;;;9.00;99.90;;;;;;6129350;19;19915;-78
2022/11/04 08:10:19;;;;;;;5.00;0.70;;;9.00;99.90;;;;;;6128762;19;20317;-79
2022/11/04 08:12:23;;;;;;;1.42;0.30;;;8.90;99.90;;;;;;6129131;19;19937;-79
2022/11/04 08:14:27;;;;;;;3.75;0.52;;;;;;;;;;6128828;19;19950;-79
2022/11/04 08:16:31;;;;;;;1.83;0.40;;;9.00;99.90;;;;;;6129167;19;19957;-78
2022/11/04 08:18:36;;;;;;;0.45;0.30;;;9.10;99.90;;;;;;6128452;19;19926;-79
2022/11/04 08:20:39;;;;;;;2.35;0.40;;;9.10;99.90;;;;;;6129174;19;19925;-79
2022/11/04 08:22:43;;;;;;;0.90;0.40;;;8.90;99.90;;;;;;6128773;19;19914;-79
2022/11/04 08:24:48;;;;;;;0.75;0.40;;;8.90;99.90;;;;;;6128822;19;19915;-78
2022/11/04 08:26:55;;;;;;;1.77;0.45;;;9.10;99.90;;;;;;6128565;19;19926;-78
2022/11/04 08:29:00;;;;;;;1.90;0.40;;;9.20;99.90;;;;;;6129147;19;19934;-78
2022/11/04 08:31:06;;;;;;;1.05;0.52;;;9.10;99.90;;;;;;6128267;19;20014;-78
2022/11/04 08:33:10;;;;;;;1.27;0.40;;;9.40;99.90;;;;;;6130122;19;19934;-78
2022/11/04 08:35:13;;;;;;;1.08;0.50;;;9.00;99.90;;;;;;6128809;19;19914;-79
2022/11/04 08:37:18;;;;;;;0.57;0.45;;;9.10;99.90;;;;;;6128926;19;20255;-78
2022/11/04 08:39:23;;;;;;;1.48;0.43;;;9.10;99.90;;;;;;6128553;19;19925;-78
2022/11/04 08:41:29;;;;;;;1.40;0.70;;;9.30;99.90;;;;;;6128260;19;19932;-79
2022/11/04 08:43:36;;;;;;;3.20;0.75;;;9.10;99.90;;;;;;6128183;19;20396;-79
2022/11/04 08:45:42;;;;;;;3.80;0.60;;;9.20;99.90;;;;;;6129051;19;19922;-79
2022/11/04 08:47:47;;;;;;;2.20;0.50;;;9.20;99.90;;;;;;6129376;19;19991;-79
2022/11/04 08:49:51;;;;;;;3.08;0.70;;;9.20;99.90;;;;;;6129292;19;20338;-78
2022/11/04 08:51:58;;;;;;;5.80;0.60;;;9.70;99.90;;;;;;6126945;19;20340;-78
2022/11/04 08:54:03;;;;;;;1.63;0.50;;;;;;;;;;6127456;19;20374;-78
2022/11/04 08:56:12;;;;;;;2.05;0.70;;;9.40;99.90;;;;;;6128596;19;19930;-78
2022/11/04 08:58:16;;;;;;;2.20;0.45;;;9.40;99.90;;;;;;6127855;19;19929;-78
2022/11/04 09:00:23;;;;;;;1.52;0.40;;;9.20;99.90;;;;;;6128896;19;19915;-78
2022/11/04 09:02:27;;;;;;;1.45;0.50;;;;;;;;;;6130826;19;19910;-78
2022/11/04 09:04:31;;;;;;;0.80;0.60;;;;;;;;;;6128172;19;19953;-78
2022/11/04 09:06:38;;;;;;;3.13;0.70;;;9.70;99.90;;;;;;6127709;19;19990;-77
2022/11/04 09:08:43;;;;;;;4.20;1.00;;;9.10;99.90;;;;;;6129139;19;19919;-78
2022/11/04 09:10:48;;;;;;;2.15;0.70;;;9.60;99.90;;;;;;6127830;19;19919;-78
2022/11/04 09:12:52;;;;;;;1.42;0.60;;;;;;;;;;6131800;19;19977;-78
2022/11/04 09:14:56;;;;;;;3.55;0.70;;;9.80;99.90;;;;;;6128512;19;20332;-77
2022/11/04 09:17:03;;;;;;;2.90;0.60;;;9.80;99.90;;;;;;6127988;19;19938;-77
2022/11/04 09:19:07;;;;;;;1.58;0.40;;;9.60;99.90;;;;;;6127099;19;19910;-78
2022/11/04 09:21:12;;;;;;;0.75;0.30;;;9.60;99.90;;;;;;6128959;19;19914;-77
2022/11/04 09:23:16;;;;;;;2.33;0.63;;;9.90;99.90;;;;;;6127668;19;19914;-77
2022/11/04 09:25:20;;;;;;;2.03;0.80;;;9.90;99.90;;;;;;6127182;19;19926;-78
2022/11/04 09:27:24;;;;;;;1.92;0.60;;;9.70;99.90;;;;;;6127703;19;20336;-78
2022/11/04 09:29:32;;;;;;;4.18;0.65;;;;;;;;;;6127544;19;20244;-77
2022/11/04 09:31:36;;;;;;;2.30;0.68;;;9.90;99.90;;;;;;6126733;19;20340;-76
2022/11/04 09:33:42;;;;;;;4.13;0.60;;;10.30;99.90;;;;;;6127355;19;19950;-77
2022/11/04 09:35:46;;;;;;;3.22;0.93;;;;;;;;;;6126844;19;19923;-77
2022/11/04 09:37:50;;;;;;;2.67;0.80;;;10.20;99.90;;;;;;6127158;19;19929;-78
2022/11/04 09:39:55;;;;;;;7.30;1.80;;;;;;;;;;6129837;19;19926;-79
2022/11/04 09:42:15;;;;;;;4.72;1.17;;;10.30;99.90;;;;;;6129596;19;19941;-78
2022/11/04 09:44:26;;;;;;;13.18;5.43;;;10.30;99.90;;;;;;6130880;19;19941;-77
2022/11/04 09:46:34;;;;;;;5.25;1.80;;;10.30;99.90;;;;;;6126008;19;19929;-78
2022/11/04 09:48:47;;;;;;;2.75;0.73;;;10.40;99.90;;;;;;6127668;19;19922;-78
2022/11/04 09:50:54;;;;;;;14.25;4.53;;;10.50;99.90;;;;;;6125465;19;19954;-80
2022/11/04 09:53:04;;;;;;;4.85;1.20;;;10.40;99.90;;;;;;6126321;19;19911;-78
2022/11/04 09:55:16;;;;;;;12.57;5.90;;;10.60;99.90;;;;;;6127564;19;19922;-79
2022/11/04 09:57:21;;;;;;;3.08;0.80;;;10.40;99.90;;;;;;6129633;19;19919;-79
2022/11/04 09:59:31;;;;;;;13.27;5.97;;;10.60;99.90;;;;;;6126203;19;19918;-80
2022/11/04 10:01:42;;;;;;;6.30;1.98;;;10.50;99.90;;;;;;6125790;19;19919;-79
2022/11/04 10:04:02;;;;;;;2.22;0.57;;;10.80;99.90;;;;;;6125844;19;20244;-79
2022/11/04 10:06:26;;;;;;;3.13;0.65;;;10.50;99.90;;;;;;6127578;19;19919;-79
2022/11/04 10:08:46;;;;;;;6.93;2.80;;;10.60;99.90;;;;;;6126206;19;19924;-79
2022/11/04 10:10:56;;;;;;;4.43;0.98;;;10.60;99.90;;;;;;6124383;19;19942;-79
2022/11/04 10:13:13;;;;;;;2.17;0.50;;;10.60;99.90;;;;;;6124419;19;19914;-79
2022/11/04 10:15:56;;;;;;;9.23;2.53;;;10.90;99.90;;;;;;6126193;19;19919;-80
2022/11/04 10:18:11;;;;;;;5.80;2.50;;;10.80;99.90;;;;;;6125475;19;20329;-79
2022/11/04 10:20:33;;;;;;;2.72;0.70;;;10.50;99.90;;;;;;6128399;19;19926;-79
2022/11/04 10:22:57;;;;;;;5.72;1.35;;;11.00;99.90;;;;;;6126078;19;19915;-79
2022/11/04 10:25:09;;;;;;;1.60;0.40;;;10.70;99.90;;;;;;6125601;19;20256;-80
2022/11/04 10:27:18;;;;;;;3.30;0.50;;;11.20;99.90;;;;;;6125454;19;19929;-79
2022/11/04 10:29:32;;;;;;;2.40;0.50;;;11.00;99.90;;;;;;6127311;19;19928;-80
2022/11/04 10:31:40;;;;;;;1.83;0.60;;;11.20;99.90;;;;;;6125230;19;19941;-79
2022/11/04 10:33:48;;;;;;;2.20;0.50;;;11.20;99.90;;;;;;6125368;19;19926;-78
2022/11/04 10:35:58;;;;;;;1.45;0.43;;;10.90;99.90;;;;;;6126249;19;19919;-80
2022/11/04 10:38:17;;;;;;;2.70;1.00;;;11.00;99.90;;;;;;6125560;19;19918;-79
2022/11/04 10:40:27;;;;;;;3.33;0.60;;;11.80;99.90;;;;;;6125195;19;19954;-79
2022/11/04 10:42:31;;;;;;;4.28;2.00;;;11.10;99.90;;;;;;6127162;19;19929;-79
2022/11/04 10:44:38;;;;;;;3.70;0.60;;;11.60;99.90;;;;;;6124707;19;19949;-79
2022/11/04 10:46:53;;;;;;;4.78;1.60;;;12.00;99.90;;;;;;6125047;19;19919;-79
2022/11/04 10:49:04;;;;;;;2.08;0.50;;;11.50;99.90;;;;;;6125204;19;20023;-79
2022/11/04 10:51:10;;;;;;;1.90;0.70;;;11.70;99.90;;;;;;6124503;19;20339;-79
2022/11/04 10:53:17;;;;;;;2.70;1.00;;;11.50;99.90;;;;;;6123982;19;19954;-78
2022/11/04 10:55:33;;;;;;;2.47;0.60;;;11.90;99.90;;;;;;6123893;19;19910;-79
2022/11/04 10:57:37;;;;;;;0.95;0.40;;;11.10;99.90;;;;;;6126954;19;19938;-79
2022/11/04 10:59:51;;;;;;;0.82;0.40;;;11.60;99.90;;;;;;6125208;19;19910;-80
2022/11/04 11:01:57;;;;;;;1.95;0.70;;;11.70;99.90;;;;;;6124519;19;19915;-79
2022/11/04 11:04:02;;;;;;;1.85;0.50;;;11.40;99.90;;;;;;6124518;19;19945;-78
2022/11/04 11:06:21;;;;;;;0.75;0.47;;;11.50;99.90;;;;;;6123921;19;20360;-79
2022/11/04 11:08:31;;;;;;;2.15;0.70;;;11.30;99.90;;;;;;6124914;19;20336;-79
2022/11/04 11:10:36;;;;;;;5.43;1.05;;;11.30;99.90;;;;;;6125250;19;19907;-78
2022/11/04 11:12:49;;;;;;;4.50;1.73;;;11.70;99.90;;;;;;6124702;19;19947;-78
2022/11/04 11:14:53;;;;;;;3.50;0.40;;;11.30;99.90;;;;;;6123758;19;19926;-79
2022/11/04 11:16:58;;;;;;;3.92;0.70;;;13.00;99.90;;;;;;6122078;19;19922;-79
2022/11/04 11:19:16;;;;;;;3.42;0.90;;;12.30;99.90;;;;;;6124922;19;19911;-80
2022/11/04 11:21:23;;;;;;;3.58;0.82;;;12.10;99.90;;;;;;6124985;19;20345;-79
2022/11/04 11:23:46;;;;;;;1.90;0.50;;;12.00;99.90;;;;;;6127855;19;19925;-80
2022/11/04 11:25:52;;;;;;;26.10;6.55;;;12.10;99.90;;;;;;6130101;19;20276;-79
2022/11/04 11:27:59;;;;;;;3.15;1.23;;;11.60;99.90;;;;;;6128048;19;20383;-79
2022/11/04 11:30:03;;;;;;;2.65;1.00;;;11.90;99.90;;;;;;6130292;19;20292;-80
2022/11/04 11:32:08;;;;;;;4.28;1.40;;;12.00;99.90;;;;;;6125755;19;19925;-77
2022/11/04 11:34:21;;;;;;;5.28;0.73;;;11.60;99.90;;;;;;6131132;19;19915;-77
2022/11/04 11:36:31;;;;;;;2.42;1.13;;;12.00;99.90;;;;;;6131272;19;19926;-80
2022/11/04 11:38:36;;;;;;;2.92;0.47;;;11.50;99.90;;;;;;6130580;19;20438;-78
2022/11/04 11:40:41;;;;;;;4.03;0.95;;;11.80;99.90;;;;;;6132613;19;20398;-78
2022/11/04 11:42:45;;;;;;;5.38;1.60;;;;;;;;;;6130787;19;20367;-78
2022/11/04 11:44:51;;;;;;;15.02;4.38;;;11.70;99.90;;;;;;6130510;19;19925;-78
2022/11/04 11:47:00;;;;;;;7.45;2.72;;;11.50;99.90;;;;;;6131563;19;19961;-80
2022/11/04 11:49:06;;;;;;;5.40;2.38;;;11.40;99.90;;;;;;6132374;19;20255;-77